Time;durP1;ratioP1;P1;durP2;ratioP2;P2;SDS_P1;SDS_P2;PMS_P1;PMS_P2;Temp;Humidity;BMP_temperature;BMP_pressure;BME280_temperature;BME280_humidity;BME280_pressure;Samples;Min_cycle;Max_cycle;Signal;HPM_P1;HPM_P2
2023/06/21 00:00:32;;;;;;;6.73;4.70;;;20.20;99.90;;;20.86;100.00;97900.22;5024134;28;20473;-80
2023/06/21 00:03:04;;;;;;;7.93;4.20;;;20.10;99.90;;;20.80;100.00;97905.75;5024395;28;20494;-81
2023/06/21 00:05:33;;;;;;;6.40;4.40;;;20.20;99.90;;;20.77;100.00;97901.75;5026424;28;20465;-80
2023/06/21 00:08:03;;;;;;;5.40;4.60;;;20.10;99.90;;;20.80;100.00;97892.47;5026863;28;20473;-80
2023/06/21 00:10:34;;;;;;;6.83;4.00;;;20.10;99.90;;;20.80;100.00;97897.78;5026870;28;20469;-80
2023/06/21 00:13:03;;;;;;;8.50;5.07;;;20.10;99.90;;;20.72;100.00;97892.97;5024435;28;20567;-80
2023/06/21 00:15:33;;;;;;;7.90;5.00;;;20.10;99.90;;;20.71;100.00;97901.97;5025176;28;20504;-80
2023/06/21 00:18:02;;;;;;;7.10;4.60;;;20.10;99.90;;;20.66;100.00;97915.22;5026816;28;20477;-80
2023/06/21 00:20:30;;;;;;;9.40;4.57;;;20.00;99.90;;;20.71;100.00;97904.63;5026301;28;20477;-80
2023/06/21 00:22:59;;;;;;;8.60;4.57;;;20.00;99.90;;;20.74;100.00;97915.56;5023146;28;20465;-80
2023/06/21 00:25:29;;;;;;;7.53;4.17;;;20.00;99.90;;;20.75;100.00;97913.72;5024966;28;20458;-80
2023/06/21 00:27:59;;;;;;;7.70;5.43;;;20.00;99.90;;;20.71;100.00;97924.03;5023031;28;20465;-80
2023/06/21 00:30:27;;;;;;;7.87;5.03;;;19.90;99.90;;;20.69;100.00;97925.38;5025836;28;20960;-80
2023/06/21 00:32:57;;;;;;;12.97;5.10;;;19.90;99.90;;;20.57;100.00;97922.88;5024646;28;20508;-80
2023/06/21 00:35:25;;;;;;;7.57;4.20;;;19.90;99.90;;;20.49;100.00;97924.13;5025550;28;20987;-81
2023/06/21 00:37:55;;;;;;;10.60;4.20;;;19.90;99.90;;;20.49;100.00;97926.78;5023633;28;20466;-80
2023/06/21 00:40:25;;;;;;;10.07;4.90;;;19.80;99.90;;;20.50;100.00;97922.28;5024214;28;20846;-80
2023/06/21 00:43:05;;;;;;;7.40;5.20;;;19.80;99.90;;;20.49;100.00;97932.09;5024076;28;20549;-80
2023/06/21 00:45:38;;;;;;;6.83;4.80;;;19.80;99.90;;;20.43;100.00;97937.63;5025269;28;20466;-80
2023/06/21 00:48:06;;;;;;;5.90;4.07;;;19.80;99.90;;;20.42;100.00;97946.66;5023119;28;20965;-80
2023/06/21 00:50:38;;;;;;;7.90;4.80;;;19.70;99.90;;;20.42;100.00;97947.44;5025313;28;20557;-80
2023/06/21 00:53:07;;;;;;;7.90;4.70;;;19.70;99.90;;;20.37;100.00;97950.06;5025270;28;20490;-80
2023/06/21 00:55:40;;;;;;;6.53;5.00;;;19.70;99.90;;;20.44;100.00;97955.97;5026491;28;20470;-80
2023/06/21 00:58:13;;;;;;;8.23;4.40;;;19.60;99.90;;;20.44;100.00;97955.97;5021757;28;20964;-80
2023/06/21 01:00:43;;;;;;;10.90;4.93;;;19.60;99.90;;;20.43;100.00;97951.72;5023359;28;20537;-80
2023/06/21 01:03:13;;;;;;;8.20;4.67;;;19.60;99.90;;;20.37;100.00;97949.28;5024165;28;20539;-80
2023/06/21 01:05:43;;;;;;;9.00;4.50;;;19.60;99.90;;;20.34;100.00;97934.63;5024467;28;21085;-80
2023/06/21 01:08:29;;;;;;;11.17;5.00;;;19.60;99.90;;;20.33;100.00;97933.03;5026142;28;20470;-80
2023/06/21 01:11:16;;;;;;;6.87;4.63;;;19.60;99.90;;;20.21;100.00;97945.63;5025385;28;20477;-80
2023/06/21 01:14:07;;;;;;;6.13;4.20;;;19.60;99.90;;;20.14;100.00;97954.84;5024391;28;21018;-80
2023/06/21 01:16:40;;;;;;;6.20;4.63;;;19.60;99.90;;;20.12;100.00;97957.75;5024116;28;20466;-80
2023/06/21 01:19:23;;;;;;;11.03;5.77;;;19.50;99.90;;;20.10;100.00;97962.50;5025192;28;20466;-80
2023/06/21 01:21:54;;;;;;;8.70;5.67;;;19.40;99.90;;;19.98;100.00;97961.84;5025114;28;20485;-80
2023/06/21 01:24:42;;;;;;;8.10;5.03;;;19.40;99.90;;;19.96;100.00;97969.25;5026458;28;20964;-81
2023/06/21 01:27:40;;;;;;;7.87;5.23;;;19.40;99.90;;;20.00;100.00;97965.06;5024946;28;20470;-80
2023/06/21 01:30:14;;;;;;;6.90;4.50;;;19.30;99.90;;;19.96;100.00;97958.63;5026121;28;20912;-80
2023/06/21 01:32:43;;;;;;;5.57;4.70;;;19.30;99.90;;;19.95;100.00;97946.44;5024361;28;20498;-81
2023/06/21 01:35:12;;;;;;;10.43;4.70;;;19.30;99.90;;;19.94;100.00;97947.47;5024416;28;20556;-80
2023/06/21 01:37:43;;;;;;;9.30;5.10;;;19.30;99.90;;;19.93;100.00;97949.31;5024910;28;20960;-80
2023/06/21 01:40:15;;;;;;;8.17;5.47;;;19.30;99.90;;;19.91;100.00;97943.47;5024096;28;21030;-80
2023/06/21 01:42:44;;;;;;;12.43;4.67;;;19.20;99.90;;;19.86;100.00;97939.94;5022269;28;20494;-80
2023/06/21 01:45:14;;;;;;;9.33;5.00;;;19.20;99.90;;;19.81;100.00;97950.50;5021538;28;20477;-80
2023/06/21 01:47:45;;;;;;;7.70;5.10;;;19.20;99.90;;;19.72;100.00;97944.81;5020377;28;21505;-81
2023/06/21 01:50:16;;;;;;;7.90;5.30;;;19.20;99.90;;;19.65;100.00;97948.72;5022754;28;20487;-80
2023/06/21 01:52:47;;;;;;;8.10;4.70;;;19.10;99.90;;;19.68;100.00;97942.94;5024544;28;20496;-80
2023/06/21 01:55:17;;;;;;;7.40;5.20;;;19.10;99.90;;;19.69;100.00;97941.88;5021927;28;20473;-80
2023/06/21 01:57:46;;;;;;;6.33;4.20;;;19.00;99.90;;;19.72;100.00;97944.03;5022694;28;20527;-80
2023/06/21 02:00:18;;;;;;;7.70;5.03;;;19.00;99.90;;;19.73;100.00;97946.44;5021557;28;20461;-80
2023/06/21 02:02:51;;;;;;;7.13;4.83;;;18.90;99.90;;;19.61;100.00;97945.75;5023118;28;20488;-80
2023/06/21 02:05:21;;;;;;;8.43;5.17;;;19.00;99.90;;;19.51;100.00;97962.34;5023079;28;20843;-82
2023/06/21 02:07:50;;;;;;;7.47;5.47;;;19.00;99.90;;;19.47;100.00;97971.84;5024277;28;20480;-80
2023/06/21 02:10:20;;;;;;;9.33;5.03;;;19.00;99.90;;;19.46;100.00;97970.25;5023514;28;20497;-80
2023/06/21 02:12:52;;;;;;;7.07;4.90;;;18.90;99.90;;;19.51;100.00;97974.81;5024567;28;20490;-80
2023/06/21 02:15:23;;;;;;;8.70;4.83;;;18.80;99.90;;;19.52;100.00;97979.88;5023424;28;20557;-80
2023/06/21 02:17:53;;;;;;;8.73;4.70;;;18.90;99.90;;;19.47;100.00;97987.75;5021483;28;20460;-81
2023/06/21 02:20:22;;;;;;;6.37;4.93;;;18.90;99.90;;;19.50;100.00;97992.59;5022237;28;20561;-80
2023/06/21 02:22:51;;;;;;;6.60;4.53;;;18.90;99.90;;;19.53;100.00;97981.50;5022122;28;20467;-80
2023/06/21 02:25:20;;;;;;;7.03;5.20;;;18.80;99.90;;;19.54;100.00;97993.69;5021952;28;20474;-81
2023/06/21 02:27:49;;;;;;;9.07;5.30;;;18.90;99.90;;;19.54;100.00;97998.22;5022847;28;20551;-81
2023/06/21 02:30:18;;;;;;;12.47;5.50;;;18.80;99.90;;;19.55;100.00;98011.22;5020284;28;20458;-80
2023/06/21 02:32:49;;;;;;;9.63;4.87;;;18.80;99.90;;;19.55;100.00;98016.53;5022635;28;20497;-80
2023/06/21 02:35:19;;;;;;;7.57;5.17;;;18.90;99.90;;;19.54;100.00;98006.97;5020471;28;20565;-80
2023/06/21 02:37:47;;;;;;;7.80;5.13;;;18.80;99.90;;;19.56;100.00;98010.19;5021355;28;20462;-80
2023/06/21 02:40:17;;;;;;;8.17;5.50;;;18.80;99.90;;;19.53;100.00;98018.63;5021953;28;20828;-80
2023/06/21 02:42:45;;;;;;;7.37;5.13;;;18.90;99.90;;;19.48;100.00;98021.22;5021647;28;20823;-80
2023/06/21 02:45:14;;;;;;;10.70;5.03;;;18.90;99.90;;;19.49;100.00;98006.91;5022276;28;20485;-81
2023/06/21 02:47:42;;;;;;;9.80;5.30;;;18.90;99.90;;;19.47;100.00;98019.59;5022509;28;20458;-81
2023/06/21 02:50:15;;;;;;;5.60;4.90;;;18.80;99.90;;;19.46;100.00;98018.00;5024762;28;20470;-80
2023/06/21 02:52:43;;;;;;;10.67;6.00;;;18.80;99.90;;;19.38;100.00;98021.03;5023478;28;20476;-78
2023/06/21 02:55:12;;;;;;;31.27;18.70;;;18.80;99.90;;;19.37;100.00;98030.03;5020995;28;20494;-80
2023/06/21 02:57:41;;;;;;;10.13;5.80;;;18.90;99.90;;;19.32;100.00;98042.44;5020687;28;20458;-80
2023/06/21 03:00:18;;;;;;;5.97;4.67;;;18.80;99.90;;;19.35;100.00;98044.59;5021865;28;20469;-80
2023/06/21 03:02:47;;;;;;;7.20;5.17;;;18.80;99.90;;;19.37;100.00;98039.84;5021334;28;20462;-80
2023/06/21 03:05:18;;;;;;;9.33;5.67;;;18.80;99.90;;;19.39;100.00;98035.91;5020751;28;20470;-76
2023/06/21 03:07:47;;;;;;;10.07;7.20;;;18.80;99.90;;;19.41;100.00;98051.59;5018832;28;20481;-80
2023/06/21 03:10:16;;;;;;;11.90;5.90;;;18.70;99.90;;;19.43;100.00;98046.88;5019349;28;20563;-80
2023/06/21 03:12:45;;;;;;;9.60;5.10;;;18.70;99.90;;;19.47;100.00;98034.72;5021368;28;20508;-80
2023/06/21 03:15:14;;;;;;;5.40;4.50;;;18.80;99.90;;;19.50;100.00;98043.00;5022667;28;20494;-80
2023/06/21 03:17:43;;;;;;;6.33;5.13;;;18.80;99.90;;;19.51;100.00;98043.78;5023246;28;20837;-80
2023/06/21 03:20:13;;;;;;;6.40;5.27;;;18.80;99.90;;;19.51;100.00;98052.53;5023611;28;20486;-81
2023/06/21 03:22:45;;;;;;;6.87;4.60;;;18.80;99.90;;;19.48;100.00;98063.66;5023058;28;20492;-82
2023/06/21 03:25:15;;;;;;;8.30;5.83;;;18.80;99.90;;;19.45;100.00;98064.13;5024090;28;21077;-81
2023/06/21 03:27:44;;;;;;;8.30;4.80;;;18.80;99.90;;;19.48;100.00;98074.25;5022812;28;20971;-77
2023/06/21 03:30:13;;;;;;;6.83;4.87;;;18.80;99.90;;;19.46;100.00;98073.72;5023319;28;20596;-80
2023/06/21 03:32:46;;;;;;;7.53;5.50;;;18.80;99.90;;;19.46;100.00;98055.16;5023345;28;20957;-81
2023/06/21 03:35:17;;;;;;;15.17;5.30;;;18.80;99.90;;;19.46;100.00;98059.63;5023858;28;20482;-78
2023/06/21 03:37:49;;;;;;;6.73;5.13;;;18.80;99.90;;;19.36;100.00;98064.78;5024794;28;20520;-79
2023/06/21 03:40:17;;;;;;;17.00;6.17;;;18.70;99.90;;;19.35;100.00;98071.91;5022540;28;20463;-79
2023/06/21 03:42:47;;;;;;;8.07;4.90;;;18.80;99.90;;;19.35;100.00;98079.88;5021562;28;20471;-78
2023/06/21 03:45:16;;;;;;;7.13;5.10;;;18.80;99.90;;;19.37;100.00;98093.69;5024060;28;20991;-79
2023/06/21 03:47:46;;;;;;;10.90;4.70;;;18.70;99.90;;;19.35;100.00;98094.97;5021619;28;20469;-79
2023/06/21 03:50:14;;;;;;;7.50;5.43;;;18.70;99.90;;;19.35;100.00;98082.53;5023753;28;20560;-80
2023/06/21 03:52:44;;;;;;;8.10;5.60;;;18.70;99.90;;;19.37;100.00;98080.41;5019208;28;20473;-79
2023/06/21 03:55:14;;;;;;;6.30;5.13;;;18.70;99.90;;;19.35;100.00;98085.19;5020810;28;20502;-80
2023/06/21 03:57:44;;;;;;;7.27;5.20;;;18.70;99.90;;;19.38;100.00;98092.66;5021980;28;20995;-79
2023/06/21 04:00:13;;;;;;;11.93;5.37;;;18.70;99.90;;;19.41;100.00;98086.88;5017624;28;20471;-79
2023/06/21 04:02:43;;;;;;;8.43;5.77;;;18.70;99.90;;;19.43;100.00;98098.06;5021272;28;20972;-80
2023/06/21 04:05:12;;;;;;;8.30;4.90;;;18.70;99.90;;;19.41;100.00;98104.66;5020437;28;20463;-78
2023/06/21 04:07:41;;;;;;;7.17;5.13;;;18.80;99.90;;;19.41;100.00;98094.84;5023936;28;20541;-79
2023/06/21 04:10:12;;;;;;;10.47;5.37;;;18.70;99.90;;;19.44;100.00;98093.53;5022293;28;20485;-80
2023/06/21 04:12:43;;;;;;;8.27;5.57;;;18.70;99.90;;;19.41;100.00;98097.50;5023204;28;20454;-79
2023/06/21 04:15:12;;;;;;;7.10;5.33;;;18.70;99.90;;;19.42;100.00;98096.47;5025604;28;20996;-80
2023/06/21 04:17:41;;;;;;;8.20;4.97;;;18.80;99.90;;;19.45;100.00;98095.97;5024184;28;20997;-80
2023/06/21 04:20:13;;;;;;;10.90;5.33;;;18.70;99.90;;;19.44;100.00;98083.75;5022582;28;20486;-78
2023/06/21 04:22:44;;;;;;;8.27;6.60;;;18.70;99.90;;;19.44;100.00;98073.13;5024513;28;20462;-79
2023/06/21 04:25:13;;;;;;;8.90;5.97;;;18.70;99.90;;;19.53;100.00;98087.63;5022851;28;20552;-80
2023/06/21 04:27:45;;;;;;;7.60;5.63;;;18.70;99.90;;;19.53;100.00;98082.31;5021687;28;20470;-80
2023/06/21 04:30:14;;;;;;;8.60;5.70;;;18.80;99.90;;;19.54;100.00;98067.97;5024536;28;20466;-79
2023/06/21 04:32:45;;;;;;;11.27;5.60;;;18.80;99.90;;;19.55;100.00;98068.78;5028335;28;20871;-79
2023/06/21 04:35:43;;;;;;;11.23;5.90;;;18.80;99.90;;;19.54;100.00;98057.38;5027677;28;21099;-79
2023/06/21 04:38:12;;;;;;;7.30;5.77;;;18.80;99.90;;;19.55;100.00;98072.25;5028416;28;21098;-79
2023/06/21 04:40:43;;;;;;;10.83;5.67;;;18.90;99.90;;;19.55;100.00;98080.19;5027942;28;20547;-80
2023/06/21 04:43:13;;;;;;;7.90;5.63;;;18.90;99.90;;;19.57;100.00;98088.75;5028406;28;20899;-80
2023/06/21 04:45:42;;;;;;;9.50;6.03;;;18.90;99.90;;;19.61;100.00;98083.72;5027817;28;20952;-80
2023/06/21 04:48:14;;;;;;;6.37;4.90;;;18.90;99.90;;;19.64;100.00;98082.44;5028547;28;20874;-79
2023/06/21 04:50:45;;;;;;;6.90;5.30;;;18.90;99.90;;;19.64;100.00;98088.56;5027763;28;20474;-80
2023/06/21 04:53:14;;;;;;;9.27;5.50;;;19.00;99.90;;;19.64;100.00;98096.53;5027719;28;20516;-80
2023/06/21 04:55:42;;;;;;;9.60;6.07;;;19.00;99.90;;;19.65;100.00;98094.66;5028062;28;20873;-79
2023/06/21 04:58:13;;;;;;;8.10;5.07;;;19.00;99.90;;;19.66;100.00;98083.00;5027726;28;20473;-79
2023/06/21 05:00:42;;;;;;;6.60;5.60;;;19.00;99.90;;;19.68;100.00;98089.66;5028710;28;20832;-79
2023/06/21 05:03:10;;;;;;;6.80;5.03;;;19.00;99.90;;;19.68;100.00;98099.50;5029156;28;20516;-80
2023/06/21 05:05:42;;;;;;;5.73;4.77;;;19.00;99.90;;;19.64;100.00;98101.03;5026186;28;20473;-80
2023/06/21 05:08:11;;;;;;;7.13;5.87;;;19.00;99.90;;;19.67;100.00;98106.66;5028992;28;20462;-79
2023/06/21 05:10:40;;;;;;;9.60;5.63;;;19.00;99.90;;;19.69;100.00;98119.66;5027322;28;20477;-80
2023/06/21 05:13:09;;;;;;;8.13;5.23;;;19.10;99.90;;;19.68;100.00;98123.38;5028570;28;20473;-79
2023/06/21 05:15:39;;;;;;;8.27;5.93;;;19.00;99.90;;;19.70;100.00;98129.22;5026614;28;20506;-80
2023/06/21 05:18:08;;;;;;;8.40;5.80;;;19.10;99.90;;;19.71;100.00;98136.16;5025832;28;20462;-79
2023/06/21 05:20:37;;;;;;;6.20;5.00;;;19.10;99.90;;;19.74;100.00;98135.66;5028297;28;20519;-79
2023/06/21 05:23:06;;;;;;;9.03;5.90;;;19.10;99.90;;;19.75;100.00;98142.59;5028501;28;20477;-80
2023/06/21 05:25:35;;;;;;;6.83;5.30;;;19.10;99.90;;;19.76;100.00;98144.19;5026792;28;20843;-80
2023/06/21 05:28:04;;;;;;;6.97;5.10;;;19.10;99.90;;;19.79;100.00;98138.38;5027312;28;20454;-79
2023/06/21 05:30:33;;;;;;;7.17;5.13;;;19.10;99.90;;;19.83;100.00;98140.31;5027816;28;20541;-80
2023/06/21 05:33:03;;;;;;;11.37;4.90;;;19.10;99.90;;;19.82;100.00;98154.63;5027924;28;20458;-79
2023/06/21 05:35:32;;;;;;;8.10;5.97;;;19.20;99.90;;;19.85;100.00;98153.34;5026813;28;20833;-79
2023/06/21 05:38:01;;;;;;;6.57;5.50;;;19.20;99.90;;;19.88;100.00;98153.66;5027071;28;20482;-79
2023/06/21 05:40:29;;;;;;;10.90;6.37;;;19.20;99.90;;;19.92;100.00;98149.44;5027682;28;20469;-79
2023/06/21 05:43:01;;;;;;;8.60;6.27;;;19.20;99.90;;;19.95;100.00;98150.84;5027207;28;20508;-80
2023/06/21 05:45:30;;;;;;;7.70;5.30;;;19.20;99.90;;;20.00;100.00;98145.59;5027314;28;20466;-80
2023/06/21 05:47:59;;;;;;;10.77;6.23;;;19.30;99.90;;;20.04;100.00;98147.50;5025350;28;20461;-80
2023/06/21 05:50:30;;;;;;;8.13;5.70;;;19.30;99.90;;;20.10;100.00;98151.03;5026929;28;20470;-80
2023/06/21 05:52:59;;;;;;;12.63;5.67;;;19.30;99.90;;;20.14;100.00;98152.16;5025858;28;20469;-80
2023/06/21 05:55:28;;;;;;;9.17;6.43;;;19.30;99.90;;;20.18;100.00;98153.28;5027183;28;20536;-80
2023/06/21 05:57:56;;;;;;;10.20;6.73;;;19.40;99.90;;;20.23;100.00;98161.31;5025312;28;20465;-80
2023/06/21 06:00:25;;;;;;;16.60;5.70;;;19.50;99.90;;;20.28;100.00;98158.75;5026466;28;20466;-80
2023/06/21 06:02:54;;;;;;;9.70;5.60;;;19.50;99.90;;;20.31;100.00;98158.25;5026127;28;20532;-80
2023/06/21 06:05:23;;;;;;;15.93;6.30;;;19.60;99.90;;;20.34;100.00;98157.75;5026333;28;20484;-80
2023/06/21 06:07:53;;;;;;;7.87;5.77;;;19.60;99.90;;;20.38;100.00;98153.56;5026910;28;20473;-80
2023/06/21 06:10:22;;;;;;;9.97;5.77;;;19.60;99.90;;;20.46;100.00;98154.97;5026353;28;20485;-80
2023/06/21 06:12:51;;;;;;;9.60;6.17;;;19.70;99.90;;;20.47;100.00;98160.06;5026913;28;20474;-80
2023/06/21 06:15:20;;;;;;;12.07;6.47;;;19.70;99.90;;;20.49;100.00;98165.94;5026338;28;20984;-80
2023/06/21 06:17:49;;;;;;;12.03;5.40;;;19.80;99.90;;;20.49;100.00;98168.59;5022856;28;21125;-80
2023/06/21 06:20:18;;;;;;;11.70;6.03;;;19.80;99.90;;;20.50;100.00;98172.03;5025653;28;20504;-80
2023/06/21 06:22:48;;;;;;;11.93;6.37;;;19.80;99.90;;;20.56;100.00;98174.50;5026678;28;20478;-80
2023/06/21 06:25:18;;;;;;;9.50;5.63;;;19.80;99.90;;;20.62;100.00;98179.91;5026577;28;20506;-80
2023/06/21 06:27:47;;;;;;;9.00;5.30;;;19.90;99.90;;;20.71;100.00;98183.72;5025123;28;20465;-80
2023/06/21 06:30:16;;;;;;;12.90;5.90;;;19.90;99.90;;;20.78;100.00;98185.13;5025368;28;20848;-80
2023/06/21 06:32:44;;;;;;;10.10;5.80;;;20.00;99.90;;;20.85;100.00;98190.25;5026931;28;20466;-80
2023/06/21 06:35:13;;;;;;;8.17;6.37;;;20.10;99.90;;;20.89;100.00;98194.03;5025235;28;20581;-80
2023/06/21 06:37:41;;;;;;;10.23;5.50;;;20.20;99.90;;;20.95;100.00;98203.66;5026283;28;20975;-80
2023/06/21 06:40:12;;;;;;;7.17;5.77;;;20.20;99.90;;;21.00;100.00;98198.38;5024793;28;20490;-80
2023/06/21 06:42:42;;;;;;;11.77;6.07;;;20.30;99.90;;;21.03;100.00;98195.25;5026048;28;20827;-80
2023/06/21 06:45:11;;;;;;;12.03;5.63;;;20.30;99.90;;;21.09;100.00;98202.22;5026164;28;20465;-80
2023/06/21 06:47:40;;;;;;;8.70;5.50;;;20.40;99.90;;;21.14;100.00;98193.53;5025585;28;20464;-80
2023/06/21 06:50:10;;;;;;;10.70;6.87;;;20.40;99.90;;;21.20;100.00;98187.19;5023779;28;20497;-80
2023/06/21 06:52:39;;;;;;;9.03;5.57;;;20.50;99.90;;;21.27;100.00;98196.59;5025876;28;20868;-80
2023/06/21 06:55:09;;;;;;;9.53;5.67;;;20.50;99.90;;;21.26;100.00;98200.28;5026861;28;20512;-80
2023/06/21 06:57:39;;;;;;;8.77;5.53;;;20.50;99.90;;;21.31;100.00;98194.22;5025576;28;20470;-80
2023/06/21 07:00:30;;;;;;;9.10;5.87;;;20.60;99.90;;;21.33;100.00;98214.19;5025685;28;20481;-80
2023/06/21 07:02:59;;;;;;;10.60;5.43;;;20.60;99.90;;;21.36;100.00;98213.69;5025589;28;20879;-80
2023/06/21 07:05:28;;;;;;;6.83;5.83;;;20.60;99.90;;;21.38;100.00;98216.13;5025692;28;20466;-80
2023/06/21 07:07:57;;;;;;;16.00;6.03;;;20.60;99.90;;;21.44;100.00;98210.59;5025070;28;20466;-80
2023/06/21 07:10:26;;;;;;;9.70;5.97;;;20.70;99.90;;;21.46;100.00;98205.81;5025968;28;20474;-80
2023/06/21 07:12:55;;;;;;;8.87;6.30;;;20.70;99.90;;;21.52;100.00;98207.44;5025009;28;20470;-80
2023/06/21 07:15:24;;;;;;;9.47;5.70;;;20.80;99.90;;;21.56;100.00;98207.75;5026163;28;20470;-80
2023/06/21 07:17:56;;;;;;;8.43;5.57;;;20.80;99.90;;;21.57;100.00;98204.84;5026593;28;20472;-80
2023/06/21 07:20:24;;;;;;;9.90;5.80;;;20.80;99.90;;;21.64;100.00;98203.81;5025555;28;20535;-80
2023/06/21 07:22:55;;;;;;;12.90;5.73;;;20.90;99.90;;;21.72;100.00;98200.69;5025620;28;20470;-80
2023/06/21 07:25:24;;;;;;;8.67;5.27;;;21.00;99.90;;;21.76;100.00;98201.81;5026273;28;20855;-80
2023/06/21 07:27:53;;;;;;;6.80;5.03;;;21.00;99.90;;;21.81;100.00;98205.28;5025251;28;20465;-80
2023/06/21 07:30:23;;;;;;;7.17;5.17;;;21.10;99.90;;;21.86;100.00;98208.00;5025328;28;20465;-80
2023/06/21 07:32:52;;;;;;;7.20;5.10;;;21.20;99.90;;;21.86;100.00;98208.00;5025521;28;20500;-80
2023/06/21 07:35:22;;;;;;;9.93;5.77;;;21.20;99.90;;;21.90;100.00;98203.78;5025123;28;20474;-80
2023/06/21 07:37:51;;;;;;;8.60;5.83;;;21.20;99.90;;;21.96;100.00;98208.09;5024570;28;20467;-80
2023/06/21 07:40:20;;;;;;;7.30;5.70;;;21.30;99.90;;;21.99;100.00;98217.44;5025102;28;20520;-80
2023/06/21 07:42:50;;;;;;;6.63;5.17;;;21.40;99.90;;;21.99;100.00;98220.91;5029349;28;20559;-80
2023/06/21 07:45:18;;;;;;;7.33;5.37;;;21.30;99.90;;;22.03;100.00;98211.34;5029582;28;20472;-80
2023/06/21 07:47:47;;;;;;;7.70;6.13;;;21.40;99.90;;;22.03;100.00;98210.53;5029463;28;20539;-80
2023/06/21 07:50:16;;;;;;;7.50;5.37;;;21.30;99.90;;;22.04;100.00;98214.81;5029212;28;20493;-80
2023/06/21 07:52:51;;;;;;;10.63;5.97;;;21.40;99.90;;;22.07;100.00;98208.97;5030430;28;20460;-80
2023/06/21 07:55:20;;;;;;;7.20;5.53;;;21.40;99.90;;;22.12;100.00;98210.84;5029110;28;20474;-80
2023/06/21 07:57:49;;;;;;;8.50;5.00;;;21.40;99.90;;;22.15;100.00;98205.00;5028701;28;20520;-80
2023/06/21 08:00:19;;;;;;;9.27;5.30;;;21.50;99.90;;;22.20;100.00;98200.53;5027333;28;20489;-80
2023/06/21 08:02:51;;;;;;;7.83;5.80;;;21.50;99.90;;;22.25;100.00;98203.19;5028344;28;20462;-80
2023/06/21 08:05:21;;;;;;;7.97;5.30;;;21.60;99.90;;;22.28;100.00;98199.25;5028466;28;20515;-80
2023/06/21 08:07:53;;;;;;;10.03;5.63;;;21.60;99.90;;;22.27;100.00;98198.44;5028869;28;20462;-80
2023/06/21 08:10:21;;;;;;;10.53;5.30;;;21.50;99.90;;;22.29;100.00;98192.84;5029696;28;20491;-80
2023/06/21 08:12:51;;;;;;;11.93;5.30;;;21.70;99.90;;;22.31;100.00;98196.88;5028977;28;20972;-80
2023/06/21 08:15:19;;;;;;;8.93;4.87;;;21.70;99.90;;;22.31;100.00;98190.72;5028449;28;20470;-80
2023/06/21 08:17:48;;;;;;;6.20;4.60;;;21.70;99.90;;;22.33;100.00;98181.41;5027931;28;20504;-80
2023/06/21 08:20:17;;;;;;;6.67;5.07;;;21.70;99.90;;;22.32;100.00;98190.44;5028107;28;20485;-80
2023/06/21 08:22:46;;;;;;;6.77;4.70;;;21.70;99.90;;;22.33;100.00;98189.41;5028812;28;20469;-80
2023/06/21 08:25:16;;;;;;;6.93;4.70;;;21.70;99.90;;;22.33;100.00;98194.72;5027765;28;20478;-80
2023/06/21 08:27:44;;;;;;;7.10;5.30;;;21.70;99.90;;;22.36;100.00;98196.88;5028835;28;20461;-80
2023/06/21 08:30:13;;;;;;;7.03;4.90;;;21.70;99.90;;;22.39;100.00;98195.53;5027932;28;20470;-80
2023/06/21 08:32:42;;;;;;;7.97;5.00;;;21.70;99.90;;;22.47;100.00;98197.72;5028454;28;20466;-80
2023/06/21 08:35:11;;;;;;;13.13;7.50;;;21.70;99.90;;;22.51;100.00;98196.16;5028112;28;20548;-80
2023/06/21 08:37:41;;;;;;;6.63;4.40;;;21.90;99.90;;;22.55;100.00;98206.03;5027087;28;21114;-80
2023/06/21 08:40:15;;;;;;;10.07;4.70;;;21.90;99.90;;;22.63;100.00;98201.28;5028156;28;20480;-80
2023/06/21 08:42:45;;;;;;;8.50;5.57;;;22.00;99.90;;;22.70;100.00;98205.31;5027408;28;20521;-80
2023/06/21 08:45:13;;;;;;;7.57;4.87;;;22.20;99.90;;;22.77;100.00;98207.78;5028541;28;20947;-80
2023/06/21 08:47:43;;;;;;;7.40;5.00;;;22.10;99.90;;;22.84;100.00;98213.66;5028324;28;20462;-80
2023/06/21 08:50:16;;;;;;;8.30;5.40;;;22.10;99.90;;;22.85;100.00;98205.38;5026789;28;20462;-80
2023/06/21 08:52:46;;;;;;;6.83;5.00;;;22.10;99.90;;;22.84;100.00;98209.09;5027614;28;20482;-80
2023/06/21 08:55:20;;;;;;;6.20;4.60;;;22.00;99.90;;;22.92;100.00;98213.13;5027900;28;20462;-80
2023/06/21 08:57:57;;;;;;;8.10;4.73;;;22.20;99.90;;;22.96;100.00;98219.56;5027886;28;20494;-80
2023/06/21 09:00:35;;;;;;;7.23;4.60;;;22.20;99.90;;;23.02;100.00;98221.16;5027922;28;21121;-80
2023/06/21 09:03:13;;;;;;;5.13;4.10;;;22.30;99.90;;;23.06;100.00;98216.91;5027401;28;20972;-80
2023/06/21 09:05:51;;;;;;;8.57;4.77;;;22.30;99.90;;;23.12;100.00;98215.84;5027139;28;20493;-79
2023/06/21 09:08:20;;;;;;;5.63;3.97;;;22.40;99.90;;;23.19;100.00;98221.75;5028395;28;20495;-80
2023/06/21 09:10:53;;;;;;;8.20;5.17;;;22.40;99.90;;;23.26;100.00;98216.97;5028059;28;21094;-80
2023/06/21 09:13:27;;;;;;;8.17;5.67;;;22.50;99.90;;;23.33;100.00;98216.69;5028081;28;20470;-80
2023/06/21 09:15:56;;;;;;;8.67;5.50;;;22.60;99.90;;;23.43;100.00;98222.88;5027082;28;20552;-80
2023/06/21 09:18:35;;;;;;;9.10;5.27;;;22.70;99.90;;;23.49;100.00;98226.38;5027607;28;20952;-80
2023/06/21 09:21:05;;;;;;;6.30;4.63;;;22.80;99.90;;;23.57;100.00;98220.50;5026972;28;20914;-80
2023/06/21 09:23:34;;;;;;;8.73;4.90;;;22.90;99.90;;;23.67;100.00;98217.03;5027324;28;20577;-81
2023/06/21 09:26:04;;;;;;;7.73;5.40;;;23.00;99.90;;;23.73;100.00;98218.66;5027708;28;20500;-80
2023/06/21 09:28:34;;;;;;;7.43;4.90;;;23.00;99.90;;;23.80;100.00;98221.84;5026105;28;20492;-80
2023/06/21 09:31:03;;;;;;;6.70;5.20;;;23.20;99.90;;;23.87;100.00;98222.38;5026151;28;20898;-80
2023/06/21 09:33:33;;;;;;;8.10;4.70;;;23.30;99.90;;;23.94;100.00;98228.25;5027294;28;20524;-80
2023/06/21 09:36:04;;;;;;;7.30;5.37;;;23.30;99.90;;;24.00;100.00;98227.19;5028040;28;20545;-80
2023/06/21 09:38:36;;;;;;;10.50;4.73;;;23.30;99.90;;;23.97;100.00;98238.41;5026084;28;20537;-80
2023/06/21 09:41:08;;;;;;;9.07;5.80;;;23.30;99.90;;;24.05;100.00;98238.66;5026568;28;20546;-80
2023/06/21 09:43:43;;;;;;;7.87;4.57;;;23.40;99.90;;;24.13;100.00;98241.88;5027605;28;20533;-80
2023/06/21 09:46:14;;;;;;;9.10;5.43;;;23.30;99.90;;;24.21;100.00;98252.03;5027850;28;20457;-80
2023/06/21 09:48:43;;;;;;;6.80;4.73;;;23.50;99.90;;;24.28;100.00;98244.53;5026646;28;20988;-80
2023/06/21 09:51:16;;;;;;;10.63;5.13;;;23.60;99.90;;;24.38;100.00;98257.88;5026765;28;20508;-80
2023/06/21 09:53:47;;;;;;;7.93;5.50;;;23.70;99.90;;;24.38;100.00;98255.22;5027125;28;20474;-80
2023/06/21 09:56:19;;;;;;;7.77;5.67;;;23.70;99.90;;;24.43;100.00;98253.34;5026194;28;20468;-80
2023/06/21 09:58:50;;;;;;;6.87;4.90;;;23.80;99.90;;;24.46;100.00;98258.16;5026434;28;20647;-80
2023/06/21 10:01:23;;;;;;;6.30;5.10;;;23.80;99.90;;;24.55;100.00;98264.53;5026359;28;20481;-80
2023/06/21 10:03:52;;;;;;;6.30;5.10;;;23.90;99.90;;;24.57;100.00;98268.81;5025723;28;20455;-80
2023/06/21 10:06:29;;;;;;;7.73;4.87;;;24.00;99.90;;;24.62;100.00;98266.91;5027305;28;20899;-80
2023/06/21 10:08:58;;;;;;;6.77;4.80;;;24.20;99.90;;;24.66;100.00;98273.34;5026388;28;20528;-80
2023/06/21 10:11:28;;;;;;;7.90;4.50;;;24.20;99.90;;;24.59;100.00;98285.38;5026189;28;20470;-81
2023/06/21 10:13:58;;;;;;;6.00;4.53;;;24.10;99.90;;;24.61;100.00;98275.22;5026237;28;20466;-80
2023/06/21 10:16:27;;;;;;;6.80;5.33;;;24.10;99.90;;;24.64;100.00;98278.16;5025654;28;20474;-81
2023/06/21 10:19:00;;;;;;;8.27;5.13;;;24.20;99.90;;;24.68;100.00;98270.41;5025171;28;20556;-79
2023/06/21 10:21:31;;;;;;;5.83;5.07;;;24.20;99.90;;;24.73;100.00;98275.72;5025617;28;20458;-80
2023/06/21 10:24:02;;;;;;;6.73;4.90;;;24.20;99.90;;;24.80;100.00;98273.56;5026135;28;21221;-81